createdAt,value
2018-06-27T00:00:27.641Z,101981.00
2018-06-27T00:03:38.493Z,101984.00
2018-06-27T00:06:49.305Z,101979.00
2018-06-27T00:09:59.905Z,101984.00
2018-06-27T00:13:10.698Z,101982.00
2018-06-27T00:16:21.616Z,101984.00
2018-06-27T00:19:32.356Z,101986.00
2018-06-27T00:22:43.156Z,101984.00
2018-06-27T00:25:54.557Z,101985.00
2018-06-27T00:29:05.259Z,101985.00
2018-06-27T00:32:16.197Z,101984.00
2018-06-27T00:35:27.293Z,101984.00
2018-06-27T00:38:38.148Z,101982.00
2018-06-27T00:41:48.656Z,101985.00
2018-06-27T00:44:59.175Z,101986.00
2018-06-27T00:48:10.084Z,101977.00
2018-06-27T00:51:20.428Z,101980.00
2018-06-27T00:54:31.271Z,101972.00
2018-06-27T00:57:41.731Z,101974.00
2018-06-27T01:00:52.374Z,101976.00
2018-06-27T01:04:02.680Z,101976.00
2018-06-27T01:07:13.213Z,101972.00
2018-06-27T01:10:23.655Z,101972.00
2018-06-27T01:13:34.255Z,101978.00
2018-06-27T01:16:45.145Z,101979.00
2018-06-27T01:19:56.691Z,101977.00
2018-06-27T01:23:07.516Z,101976.00
2018-06-27T01:26:18.779Z,101980.00
2018-06-27T01:29:29.715Z,101977.00
2018-06-27T01:32:40.288Z,101978.00
2018-06-27T01:35:51.129Z,101983.00
2018-06-27T01:39:01.845Z,101982.00
2018-06-27T01:42:12.371Z,101988.00
2018-06-27T01:45:23.404Z,101993.00
2018-06-27T01:48:33.974Z,102000.00
2018-06-27T01:51:44.336Z,101999.00
2018-06-27T01:54:55.752Z,101998.00
2018-06-27T01:58:06.638Z,101997.00
2018-06-27T02:01:17.769Z,102001.00
2018-06-27T02:04:29.768Z,101999.00
2018-06-27T02:07:40.343Z,102003.00
2018-06-27T02:10:51.192Z,102006.00
2018-06-27T02:14:01.832Z,102004.00
2018-06-27T02:17:12.795Z,102001.00
2018-06-27T02:20:23.918Z,101998.00
2018-06-27T02:23:34.625Z,102002.00
2018-06-27T02:26:45.036Z,102007.00
2018-06-27T02:29:55.683Z,102005.00
2018-06-27T02:33:06.692Z,102006.00
2018-06-27T02:36:17.471Z,101999.00
2018-06-27T02:39:28.117Z,102005.00
2018-06-27T02:42:38.921Z,102013.00
2018-06-27T02:45:49.611Z,102011.00
2018-06-27T02:49:01.680Z,102006.00
2018-06-27T02:52:12.655Z,102010.00
2018-06-27T02:55:27.435Z,102008.00
2018-06-27T02:58:39.015Z,102008.00
2018-06-27T03:01:49.738Z,102006.00
2018-06-27T03:05:01.563Z,102004.00
2018-06-27T03:08:12.356Z,102004.00
2018-06-27T03:11:22.637Z,102009.00
2018-06-27T03:14:33.403Z,102004.00
2018-06-27T03:17:46.415Z,102007.00
2018-06-27T03:20:57.062Z,102006.00
2018-06-27T03:24:07.692Z,102005.00
2018-06-27T03:27:18.375Z,102006.00
2018-06-27T03:30:28.857Z,102008.00
2018-06-27T03:33:39.292Z,102010.00
2018-06-27T03:36:49.713Z,102007.00
2018-06-27T03:40:00.991Z,102016.00
2018-06-27T03:43:11.955Z,102008.00
2018-06-27T03:46:22.616Z,102009.00
2018-06-27T03:49:33.370Z,102006.00
2018-06-27T03:52:46.364Z,102005.00
2018-06-27T03:55:57.345Z,101998.00
2018-06-27T03:59:08.188Z,102000.00
2018-06-27T04:02:19.927Z,102000.00
2018-06-27T04:05:31.942Z,101999.00
2018-06-27T04:08:44.171Z,101999.00
2018-06-27T04:11:58.699Z,102001.00
2018-06-27T04:15:10.115Z,102005.00
2018-06-27T04:18:21.126Z,102007.00
2018-06-27T04:21:34.271Z,102006.00
2018-06-27T04:24:45.416Z,102008.00
2018-06-27T04:27:56.064Z,102013.00
2018-06-27T04:31:06.699Z,102008.00
2018-06-27T04:34:17.955Z,102013.00
2018-06-27T04:37:29.307Z,102014.00
2018-06-27T04:40:40.074Z,102019.00
2018-06-27T04:43:51.865Z,102017.00
2018-06-27T04:47:02.884Z,102023.00
2018-06-27T04:50:13.508Z,102025.00
2018-06-27T04:53:24.059Z,102025.00
2018-06-27T04:56:35.456Z,102021.00
2018-06-27T04:59:46.097Z,102020.00
2018-06-27T05:02:56.908Z,102026.00
2018-06-27T05:06:07.482Z,102031.00
2018-06-27T05:09:18.334Z,102036.00
2018-06-27T05:12:28.977Z,102040.00
2018-06-27T05:15:39.686Z,102034.00
2018-06-27T05:18:50.251Z,102032.00
2018-06-27T05:22:00.606Z,102035.00
2018-06-27T05:25:11.204Z,102038.00
2018-06-27T05:28:21.930Z,102043.00
2018-06-27T05:31:44.475Z,102042.00
2018-06-27T05:34:55.268Z,102041.00
2018-06-27T05:38:07.432Z,102040.00
2018-06-27T05:41:18.042Z,102044.00
2018-06-27T05:44:28.974Z,102044.00
2018-06-27T05:47:39.815Z,102045.00
2018-06-27T05:50:50.053Z,102048.00
2018-06-27T05:54:00.333Z,102049.00
2018-06-27T05:57:11.216Z,102052.00
2018-06-27T06:00:21.515Z,102050.00
2018-06-27T06:03:32.264Z,102049.00
2018-06-27T06:06:42.981Z,102043.00
2018-06-27T06:09:53.394Z,102039.00
2018-06-27T06:13:04.167Z,102040.00
2018-06-27T06:16:15.006Z,102044.00
2018-06-27T06:19:25.459Z,102048.00
2018-06-27T06:22:36.302Z,102050.00
2018-06-27T06:25:46.626Z,102046.00
2018-06-27T06:28:57.549Z,102051.00
2018-06-27T06:32:09.703Z,102050.00
2018-06-27T06:35:21.224Z,102050.00
2018-06-27T06:38:31.696Z,102049.00
2018-06-27T06:41:42.480Z,102048.00
2018-06-27T06:44:53.395Z,102050.00
2018-06-27T06:48:04.987Z,102052.00
2018-06-27T06:51:15.669Z,102055.00
2018-06-27T06:54:26.480Z,102053.00
2018-06-27T06:57:37.068Z,102051.00
2018-06-27T07:00:47.916Z,102055.00
2018-06-27T07:03:58.725Z,102050.00
2018-06-27T07:07:10.595Z,102053.00
2018-06-27T07:10:21.390Z,102044.00
2018-06-27T07:13:32.146Z,102049.00
2018-06-27T07:16:42.538Z,102046.00
2018-06-27T07:19:53.421Z,102046.00
2018-06-27T07:23:03.916Z,102040.00
2018-06-27T07:26:14.387Z,102041.00
2018-06-27T07:29:24.871Z,102040.00
2018-06-27T07:32:36.289Z,102029.00
2018-06-27T07:35:46.904Z,102030.00
2018-06-27T07:38:57.471Z,102028.00
2018-06-27T07:42:09.386Z,102026.00
2018-06-27T07:45:20.321Z,102024.00
2018-06-27T07:48:31.101Z,102022.00
2018-06-27T07:51:42.590Z,102015.00
2018-06-27T07:54:52.984Z,102021.00
2018-06-27T07:58:03.334Z,102023.00
2018-06-27T08:01:14.967Z,102019.00
2018-06-27T08:04:25.605Z,102014.00
2018-06-27T08:07:35.920Z,102018.00
2018-06-27T08:10:46.417Z,102025.00
2018-06-27T08:13:57.030Z,102014.00
2018-06-27T08:17:07.696Z,102003.00
2018-06-27T08:20:18.350Z,102012.00
2018-06-27T08:23:29.144Z,102004.00
2018-06-27T08:26:40.109Z,102008.00
2018-06-27T08:29:54.616Z,102004.00
2018-06-27T08:33:05.947Z,102002.00
2018-06-27T08:36:17.048Z,102001.00
2018-06-27T08:39:27.684Z,102000.00
2018-06-27T08:42:38.133Z,101996.00
2018-06-27T08:45:48.476Z,101998.00
2018-06-27T08:48:59.289Z,101994.00
2018-06-27T08:52:09.545Z,101985.00
2018-06-27T08:55:20.061Z,101978.00
2018-06-27T08:58:30.574Z,101976.00
2018-06-27T09:01:41.184Z,101975.00
2018-06-27T09:04:51.667Z,101973.00
2018-06-27T09:08:02.534Z,101971.00
2018-06-27T09:11:13.028Z,101970.00
2018-06-27T09:14:23.527Z,101976.00
2018-06-27T09:17:34.788Z,101971.00
2018-06-27T09:20:45.650Z,101976.00
2018-06-27T09:23:56.347Z,101969.00
2018-06-27T09:27:07.126Z,101959.00
2018-06-27T09:30:19.077Z,101959.00
2018-06-27T09:33:29.703Z,101960.00
2018-06-27T09:36:40.404Z,101970.00
2018-06-27T09:39:51.297Z,101963.00
2018-06-27T09:43:01.769Z,101959.00
2018-06-27T09:46:12.594Z,101954.00
2018-06-27T09:49:23.307Z,101956.00
2018-06-27T09:52:33.755Z,101960.00
2018-06-27T09:55:44.212Z,101945.00
2018-06-27T09:58:54.715Z,101944.00
2018-06-27T10:02:05.528Z,101941.00
2018-06-27T10:05:15.928Z,101950.00
2018-06-27T10:08:26.728Z,101949.00
2018-06-27T10:11:37.573Z,101929.00
2018-06-27T10:14:48.414Z,101926.00
2018-06-27T10:17:59.295Z,101924.00
2018-06-27T10:21:09.872Z,101925.00
2018-06-27T10:24:21.720Z,101927.00
2018-06-27T10:27:32.637Z,101916.00
2018-06-27T10:30:43.636Z,101906.00
2018-06-27T10:33:54.478Z,101907.00
2018-06-27T10:37:05.210Z,101913.00
2018-06-27T10:40:15.635Z,101912.00
2018-06-27T10:43:26.151Z,101904.00
2018-06-27T10:46:36.810Z,101894.00
2018-06-27T10:49:48.188Z,101900.00
2018-06-27T10:52:58.477Z,101889.00
2018-06-27T10:56:09.127Z,101890.00
2018-06-27T10:59:19.679Z,101886.00
2018-06-27T11:02:30.131Z,101877.00
2018-06-27T11:05:40.989Z,101875.00
2018-06-27T11:08:51.969Z,101879.00
2018-06-27T11:12:02.844Z,101875.00
2018-06-27T11:15:13.440Z,101869.00
2018-06-27T11:18:24.919Z,101872.00
2018-06-27T11:21:35.347Z,101879.00
2018-06-27T11:24:46.248Z,101870.00
2018-06-27T11:27:57.077Z,101869.00
2018-06-27T11:31:08.028Z,101855.00
2018-06-27T11:34:18.897Z,101867.00
2018-06-27T11:37:33.674Z,101855.00
2018-06-27T11:40:44.505Z,101851.00
2018-06-27T11:43:55.164Z,101853.00
2018-06-27T11:47:05.848Z,101851.00
2018-06-27T11:50:16.433Z,101850.00
2018-06-27T11:53:26.961Z,101845.00
2018-06-27T11:56:37.592Z,101836.00
2018-06-27T11:59:48.514Z,101844.00
2018-06-27T12:02:59.402Z,101844.00
2018-06-27T12:06:10.661Z,101841.00
2018-06-27T12:09:21.817Z,101839.00
2018-06-27T12:12:32.767Z,101834.00
2018-06-27T12:15:43.843Z,101832.00
2018-06-27T12:18:54.376Z,101831.00
2018-06-27T12:22:05.261Z,101825.00
2018-06-27T12:25:16.120Z,101811.00
2018-06-27T12:28:29.091Z,101831.00
2018-06-27T12:31:39.557Z,101847.00
2018-06-27T12:34:50.385Z,101838.00
2018-06-27T12:38:01.240Z,101816.00
2018-06-27T12:41:11.568Z,101823.00
2018-06-27T12:44:22.393Z,101816.00
2018-06-27T12:47:33.525Z,101819.00
2018-06-27T12:50:44.029Z,101812.00
2018-06-27T12:53:54.428Z,101818.00
2018-06-27T12:57:05.534Z,101805.00
2018-06-27T13:00:16.340Z,101928.00
2018-06-27T13:03:27.400Z,101802.00
2018-06-27T13:06:38.337Z,101791.00
2018-06-27T13:09:49.051Z,101799.00
2018-06-27T13:12:59.874Z,101805.00
2018-06-27T13:16:10.336Z,101812.00
2018-06-27T13:19:20.907Z,101821.00
2018-06-27T13:22:31.622Z,101813.00
2018-06-27T13:25:42.560Z,101799.00
2018-06-27T13:28:53.200Z,101806.00
2018-06-27T13:32:04.146Z,101799.00
2018-06-27T13:35:14.972Z,101797.00
2018-06-27T13:38:25.812Z,101788.00
2018-06-27T13:41:36.768Z,101793.00
2018-06-27T13:44:47.581Z,101801.00
2018-06-27T13:47:59.551Z,101797.00
2018-06-27T13:51:10.396Z,101789.00
2018-06-27T13:54:21.325Z,101795.00
2018-06-27T13:57:32.516Z,101789.00
2018-06-27T14:00:43.189Z,101784.00
2018-06-27T14:03:54.052Z,101792.00
2018-06-27T14:07:04.975Z,101773.00
2018-06-27T14:10:16.060Z,101767.00
2018-06-27T14:13:27.291Z,101768.00
2018-06-27T14:16:38.147Z,101764.00
2018-06-27T14:19:48.897Z,101777.00
2018-06-27T14:22:59.757Z,101775.00
2018-06-27T14:26:10.161Z,101790.00
2018-06-27T14:29:21.076Z,101781.00
2018-06-27T14:32:34.240Z,101781.00
2018-06-27T14:35:44.873Z,101783.00
2018-06-27T14:38:55.834Z,101752.00
2018-06-27T14:42:07.092Z,101756.00
2018-06-27T14:45:17.916Z,101759.00
2018-06-27T14:48:28.731Z,101770.00
2018-06-27T14:51:39.085Z,101774.00
2018-06-27T14:54:51.703Z,101758.00
2018-06-27T14:58:02.392Z,101736.00
2018-06-27T15:01:13.341Z,101722.00
2018-06-27T15:04:24.408Z,101738.00
2018-06-27T15:07:35.478Z,101741.00
2018-06-27T15:10:46.289Z,101738.00
2018-06-27T15:13:58.317Z,101728.00
2018-06-27T15:17:09.149Z,101733.00
2018-06-27T15:20:20.571Z,101728.00
2018-06-27T15:23:31.655Z,101721.00
2018-06-27T15:26:42.480Z,101724.00
2018-06-27T15:29:53.008Z,101711.00
2018-06-27T15:33:04.364Z,101722.00
2018-06-27T15:36:14.971Z,101707.00
2018-06-27T15:39:26.213Z,101699.00
2018-06-27T15:42:39.232Z,101702.00
2018-06-27T15:45:49.863Z,101710.00
2018-06-27T15:49:00.380Z,101714.00
2018-06-27T15:52:10.971Z,101725.00
2018-06-27T15:55:21.917Z,101726.00
2018-06-27T15:58:32.796Z,101717.00
2018-06-27T16:01:44.400Z,101701.00
2018-06-27T16:04:55.283Z,101702.00
2018-06-27T16:08:06.329Z,101703.00
2018-06-27T16:11:16.852Z,101707.00
2018-06-27T16:14:27.748Z,101714.00
2018-06-27T16:17:40.033Z,101708.00
2018-06-27T16:20:50.917Z,101715.00
2018-06-27T16:24:01.356Z,101700.00
2018-06-27T16:27:12.215Z,101701.00
2018-06-27T16:30:22.893Z,101702.00
2018-06-27T16:33:33.587Z,101711.00
2018-06-27T16:36:44.521Z,101712.00
2018-06-27T16:39:55.521Z,101712.00
2018-06-27T16:43:06.580Z,101718.00
2018-06-27T16:46:17.600Z,101698.00
2018-06-27T16:49:28.473Z,101693.00
2018-06-27T16:52:40.751Z,101681.00
2018-06-27T16:55:52.706Z,101678.00
2018-06-27T16:59:03.917Z,101686.00
2018-06-27T17:02:14.742Z,101691.00
2018-06-27T17:05:25.673Z,101693.00
2018-06-27T17:08:36.631Z,101688.00
2018-06-27T17:11:48.476Z,101680.00
2018-06-27T17:14:59.714Z,101694.00
2018-06-27T17:18:10.698Z,101700.00
2018-06-27T17:21:21.730Z,101708.00
2018-06-27T17:24:32.147Z,101715.00
2018-06-27T17:27:43.836Z,101707.00
2018-06-27T17:30:55.434Z,101709.00
2018-06-27T17:34:06.474Z,101705.00
2018-06-27T17:37:17.396Z,101719.00
2018-06-27T17:40:28.361Z,101721.00
2018-06-27T17:43:39.524Z,101725.00
2018-06-27T17:46:50.797Z,101729.00
2018-06-27T17:50:01.241Z,101727.00
2018-06-27T17:53:12.294Z,101712.00
2018-06-27T17:56:22.742Z,101728.00
2018-06-27T17:59:33.646Z,101728.00
2018-06-27T18:02:46.710Z,101730.00
2018-06-27T18:05:57.820Z,101732.00
2018-06-27T18:09:10.413Z,101724.00
2018-06-27T18:12:20.973Z,101718.00
2018-06-27T18:15:31.646Z,101721.00
2018-06-27T18:18:42.637Z,101724.00
2018-06-27T18:21:55.524Z,101730.00
2018-06-27T18:25:06.278Z,101732.00
2018-06-27T18:28:17.900Z,101731.00
2018-06-27T18:31:29.076Z,101740.00
2018-06-27T18:34:40.053Z,101737.00
2018-06-27T18:37:50.677Z,101736.00
2018-06-27T18:41:01.131Z,101748.00
2018-06-27T18:44:11.731Z,101749.00
2018-06-27T18:47:27.834Z,101747.00
2018-06-27T18:50:38.441Z,101750.00
2018-06-27T18:53:50.083Z,101758.00
2018-06-27T18:57:00.820Z,101763.00
2018-06-27T19:00:11.457Z,101769.00
2018-06-27T19:03:22.302Z,101776.00
2018-06-27T19:06:32.823Z,101778.00
2018-06-27T19:09:45.900Z,101778.00
2018-06-27T19:12:56.568Z,101782.00
2018-06-27T19:16:07.105Z,101779.00
2018-06-27T19:19:17.619Z,101779.00
2018-06-27T19:22:28.210Z,101779.00
2018-06-27T19:25:38.789Z,101785.00
2018-06-27T19:28:49.241Z,101790.00
2018-06-27T19:32:00.123Z,101789.00
2018-06-27T19:35:10.955Z,101799.00
2018-06-27T19:38:22.381Z,101796.00
2018-06-27T19:41:34.492Z,101800.00
2018-06-27T19:44:45.048Z,101804.00
2018-06-27T19:47:55.967Z,101807.00
2018-06-27T19:51:06.618Z,101804.00
2018-06-27T19:54:17.312Z,101811.00
2018-06-27T19:57:27.823Z,101810.00
2018-06-27T20:00:38.314Z,101812.00
2018-06-27T20:03:50.708Z,101812.00
2018-06-27T20:07:01.988Z,101811.00
2018-06-27T20:10:12.465Z,101819.00
2018-06-27T20:13:23.220Z,101816.00
2018-06-27T20:16:34.207Z,101821.00
2018-06-27T20:19:45.350Z,101815.00
2018-06-27T20:22:56.141Z,101820.00
2018-06-27T20:26:06.927Z,101820.00
2018-06-27T20:29:17.297Z,101826.00
2018-06-27T20:32:31.966Z,101831.00
2018-06-27T20:35:42.563Z,101834.00
2018-06-27T20:38:53.447Z,101833.00
2018-06-27T20:42:04.403Z,101835.00
2018-06-27T20:45:14.899Z,101832.00
2018-06-27T20:48:25.773Z,101835.00
2018-06-27T20:51:36.686Z,101837.00
2018-06-27T20:54:47.628Z,101840.00
2018-06-27T20:57:58.397Z,101837.00
2018-06-27T21:01:08.797Z,101837.00
2018-06-27T21:04:19.790Z,101842.00
2018-06-27T21:07:30.245Z,101844.00
2018-06-27T21:10:40.831Z,101843.00
2018-06-27T21:13:52.773Z,101848.00
2018-06-27T21:17:03.575Z,101847.00
2018-06-27T21:20:14.170Z,101851.00
2018-06-27T21:23:24.705Z,101854.00
2018-06-27T21:26:35.964Z,101861.00
2018-06-27T21:29:47.557Z,101861.00
2018-06-27T21:32:58.224Z,101867.00
2018-06-27T21:36:09.124Z,101863.00
2018-06-27T21:39:20.116Z,101862.00
2018-06-27T21:42:30.594Z,101859.00
2018-06-27T21:45:41.584Z,101863.00
2018-06-27T21:48:52.598Z,101869.00
2018-06-27T21:52:02.983Z,101869.00
2018-06-27T21:55:13.850Z,101875.00
2018-06-27T21:58:24.553Z,101875.00
2018-06-27T22:01:35.468Z,101875.00
2018-06-27T22:04:46.445Z,101882.00
2018-06-27T22:07:57.030Z,101878.00
2018-06-27T22:11:08.208Z,101879.00
2018-06-27T22:14:18.799Z,101877.00
2018-06-27T22:17:29.308Z,101875.00
2018-06-27T22:20:40.036Z,101881.00
2018-06-27T22:23:50.600Z,101882.00
2018-06-27T22:27:00.960Z,101878.00
2018-06-27T22:30:11.476Z,101879.00
2018-06-27T22:33:22.097Z,101877.00
2018-06-27T22:36:32.877Z,101879.00
2018-06-27T22:39:43.615Z,101888.00
2018-06-27T22:42:54.432Z,101879.00
2018-06-27T22:46:05.556Z,101880.00
2018-06-27T22:49:16.264Z,101883.00
2018-06-27T22:52:26.913Z,101886.00
2018-06-27T22:55:37.375Z,101888.00
2018-06-27T22:58:47.871Z,101888.00
2018-06-27T23:01:59.894Z,101883.00
2018-06-27T23:05:10.364Z,101884.00
2018-06-27T23:08:21.309Z,101885.00
2018-06-27T23:11:31.728Z,101889.00
2018-06-27T23:14:42.603Z,101893.00
2018-06-27T23:17:53.426Z,101895.00
2018-06-27T23:21:04.272Z,101895.00
2018-06-27T23:24:14.844Z,101896.00
2018-06-27T23:27:25.763Z,101901.00
2018-06-27T23:30:36.632Z,101898.00
2018-06-27T23:33:47.487Z,101896.00
2018-06-27T23:37:00.612Z,101894.00
2018-06-27T23:40:11.101Z,101891.00
2018-06-27T23:43:21.927Z,101890.00
2018-06-27T23:46:32.430Z,101887.00
2018-06-27T23:49:43.469Z,101890.00
2018-06-27T23:52:53.886Z,101888.00
2018-06-27T23:56:04.492Z,101890.00
2018-06-27T23:59:15.248Z,101888.00
